Seiyo Maru — JMFG — position and weather

sailwx.info

Track history (hours):
 
Tides and Currents Weather Stations Pressure Air Temp Water Temp Dewpoint Dewpoint Depression Visibility Wind Speed Wind Dir Waves Ship Positions

Oceanographic research ship Seiyo Maru (Japan)

Detailed information on ship capabilities available from University of Delaware's Ocean Information Center.

Last reported at 2017-Apr-25 05:40 UTC. Time now 2017-Apr-30 05:11 UTC.
Position N 35°35' E 139°47'.

Length 36 m; beam 7 m.

Type: Other ship. MMSI: 431431000.

Date/timePositionNaut miles runAvg speedWind from/ knotsBaromVisibWave heightAir tempDewpointWater temp
2017-Apr-25 05:40N 35°35' E 139°47'3 8.4
2017-Apr-25 05:22N 35°34' E 139°50'3 5.7
2017-Apr-25 04:51N 35°31' E 139°50'3 8.3
2017-Apr-25 04:29N 35°29' E 139°47'4 6.4
2017-Apr-25 03:48N 35°25' E 139°44'2 8.1
2017-Apr-25 03:30N 35°23' E 139°42'8 5.5
2017-Apr-25 02:05N 35°16' E 139°45'1 5.2
2017-Apr-25 01:58N 35°16' E 139°45'2 4.2
2017-Apr-25 01:24N 35°13' E 139°46'2 4.8
2017-Apr-25 01:00N 35°12' E 139°44'1 1.0
2017-Apr-25 00:30N 35°11' E 139°44'2 4.3
2017-Apr-25 00:00N 35°09' E 139°45'2 3.8
2017-Apr-24 23:30N 35°07' E 139°46'2 3.8
2017-Apr-24 22:58N 35°05' E 139°46'2 3.3
2017-Apr-24 22:30N 35°06' E 139°44'4 8.3
2017-Apr-24 22:00N 35°07' E 139°39'  
2017-Apr-19 23:28N 35°07' E 139°39'4 8.1
2017-Apr-19 23:00N 35°09' E 139°43'4 8.2
2017-Apr-19 22:30N 35°13' E 139°45'5 0.4
2017-Apr-19 08:35N 35°17' E 139°41'2 7.3
2017-Apr-19 08:22N 35°18' E 139°42'4 6.8
2017-Apr-19 07:50N 35°22' E 139°42'3 7.7
2017-Apr-19 07:30N 35°24' E 139°43'6 3.8
2017-Apr-19 06:03N 35°27' E 139°49'1 8.0
2017-Apr-19 05:58N 35°28' E 139°49'3 6.8
2017-Apr-19 05:28N 35°31' E 139°50'2 2.9
2017-Apr-19 04:36N 35°33' E 139°50'2 8.1
2017-Apr-19 04:19N 35°35' E 139°48'3 8.0
2017-Apr-19 03:55N 35°38' E 139°46'  
2017-Apr-15 06:29N 35°38' E 139°45'3 4.6
2017-Apr-15 05:53N 35°35' E 139°47'  
Track history (hours):
 
Tides and Currents Weather Stations Pressure Air Temp Water Temp Dewpoint Dewpoint Depression Visibility Wind Speed Wind Dir Waves Ship Positions

Oceanographic research ship Seiyo Maru (Japan)

Detailed information on ship capabilities available from University of Delaware's Ocean Information Center.

Last reported at 2017-Apr-25 05:40 UTC. Time now 2017-Apr-30 05:11 UTC.
Position N 35°35' E 139°47'.

Length 36 m; beam 7 m.

Type: Other ship. MMSI: 431431000.

Date/timePositionNaut miles runAvg speedWind from/ knotsBaromVisibWave heightAir tempDewpointWater temp
2017-Apr-25 05:40N 35°35' E 139°47'3 8.4
2017-Apr-25 05:22N 35°34' E 139°50'3 5.7
2017-Apr-25 04:51N 35°31' E 139°50'3 8.3
2017-Apr-25 04:29N 35°29' E 139°47'4 6.4
2017-Apr-25 03:48N 35°25' E 139°44'2 8.1
2017-Apr-25 03:30N 35°23' E 139°42'8 5.5
2017-Apr-25 02:05N 35°16' E 139°45'1 5.2
2017-Apr-25 01:58N 35°16' E 139°45'2 4.2
2017-Apr-25 01:24N 35°13' E 139°46'2 4.8
2017-Apr-25 01:00N 35°12' E 139°44'1 1.0
2017-Apr-25 00:30N 35°11' E 139°44'2 4.3
2017-Apr-25 00:00N 35°09' E 139°45'2 3.8
2017-Apr-24 23:30N 35°07' E 139°46'2 3.8
2017-Apr-24 22:58N 35°05' E 139°46'2 3.3
2017-Apr-24 22:30N 35°06' E 139°44'4 8.3
2017-Apr-24 22:00N 35°07' E 139°39'  
2017-Apr-19 23:28N 35°07' E 139°39'4 8.1
2017-Apr-19 23:00N 35°09' E 139°43'4 8.2
2017-Apr-19 22:30N 35°13' E 139°45'5 0.4
2017-Apr-19 08:35N 35°17' E 139°41'2 7.3
2017-Apr-19 08:22N 35°18' E 139°42'4 6.8
2017-Apr-19 07:50N 35°22' E 139°42'3 7.7
2017-Apr-19 07:30N 35°24' E 139°43'6 3.8
2017-Apr-19 06:03N 35°27' E 139°49'1 8.0
2017-Apr-19 05:58N 35°28' E 139°49'3 6.8
2017-Apr-19 05:28N 35°31' E 139°50'2 2.9
2017-Apr-19 04:36N 35°33' E 139°50'2 8.1
2017-Apr-19 04:19N 35°35' E 139°48'3 8.0
2017-Apr-19 03:55N 35°38' E 139°46'  
2017-Apr-15 06:29N 35°38' E 139°45'3 4.6
2017-Apr-15 05:53N 35°35' E 139°47'  

Dump ship's entire track history